sensor_id;sensor_type;location;lat;lon;timestamp;P1;durP1;ratioP1;P2;durP2;ratioP2
49217;SDS011;35045;51.194;7.268;2022-09-30T00:00:08;9.27;;;6.18;;
49217;SDS011;35045;51.194;7.268;2022-09-30T00:02:35;12.32;;;7.55;;
49217;SDS011;35045;51.194;7.268;2022-09-30T00:05:01;10.55;;;7.25;;
49217;SDS011;35045;51.194;7.268;2022-09-30T00:07:27;12.45;;;7.50;;
49217;SDS011;35045;51.194;7.268;2022-09-30T00:09:53;11.02;;;8.10;;
49217;SDS011;35045;51.194;7.268;2022-09-30T00:12:20;10.45;;;7.68;;
49217;SDS011;35045;51.194;7.268;2022-09-30T00:14:46;11.55;;;8.00;;
49217;SDS011;35045;51.194;7.268;2022-09-30T00:17:12;12.15;;;8.25;;
49217;SDS011;35045;51.194;7.268;2022-09-30T00:19:38;11.95;;;7.57;;
49217;SDS011;35045;51.194;7.268;2022-09-30T00:22:05;9.50;;;7.28;;
49217;SDS011;35045;51.194;7.268;2022-09-30T00:24:31;12.13;;;7.32;;
49217;SDS011;35045;51.194;7.268;2022-09-30T00:26:57;9.80;;;7.20;;
49217;SDS011;35045;51.194;7.268;2022-09-30T00:29:23;9.35;;;6.57;;
49217;SDS011;35045;51.194;7.268;2022-09-30T00:31:49;10.05;;;7.13;;
49217;SDS011;35045;51.194;7.268;2022-09-30T00:34:15;9.95;;;6.80;;
49217;SDS011;35045;51.194;7.268;2022-09-30T00:39:14;10.35;;;7.13;;
49217;SDS011;35045;51.194;7.268;2022-09-30T00:41:46;10.35;;;7.40;;
49217;SDS011;35045;51.194;7.268;2022-09-30T00:47:17;11.32;;;7.38;;
49217;SDS011;35045;51.194;7.268;2022-09-30T00:49:58;10.55;;;6.68;;
49217;SDS011;35045;51.194;7.268;2022-09-30T00:52:36;11.00;;;6.22;;
49217;SDS011;35045;51.194;7.268;2022-09-30T00:55:03;10.23;;;6.53;;
49217;SDS011;35045;51.194;7.268;2022-09-30T00:57:33;11.35;;;7.35;;
49217;SDS011;35045;51.194;7.268;2022-09-30T01:00:00;9.52;;;6.55;;
49217;SDS011;35045;51.194;7.268;2022-09-30T01:02:27;9.27;;;6.57;;
49217;SDS011;35045;51.194;7.268;2022-09-30T01:04:53;11.82;;;6.78;;
49217;SDS011;35045;51.194;7.268;2022-09-30T01:07:21;11.00;;;6.93;;
49217;SDS011;35045;51.194;7.268;2022-09-30T01:09:48;9.63;;;6.72;;
49217;SDS011;35045;51.194;7.268;2022-09-30T01:12:16;10.15;;;6.60;;
49217;SDS011;35045;51.194;7.268;2022-09-30T01:14:45;10.50;;;7.50;;
49217;SDS011;35045;51.194;7.268;2022-09-30T01:23:26;11.50;;;7.15;;
49217;SDS011;35045;51.194;7.268;2022-09-30T01:26:28;10.35;;;6.85;;
49217;SDS011;35045;51.194;7.268;2022-09-30T01:32:25;11.10;;;7.55;;
49217;SDS011;35045;51.194;7.268;2022-09-30T01:35:06;10.70;;;7.78;;
49217;SDS011;35045;51.194;7.268;2022-09-30T01:37:47;11.40;;;8.10;;
49217;SDS011;35045;51.194;7.268;2022-09-30T01:45:45;12.25;;;8.65;;
49217;SDS011;35045;51.194;7.268;2022-09-30T01:49:03;11.20;;;7.88;;
49217;SDS011;35045;51.194;7.268;2022-09-30T01:51:55;10.02;;;7.03;;
49217;SDS011;35045;51.194;7.268;2022-09-30T01:54:09;12.35;;;7.68;;
49217;SDS011;35045;51.194;7.268;2022-09-30T01:56:42;12.05;;;8.30;;
49217;SDS011;35045;51.194;7.268;2022-09-30T01:59:13;10.38;;;7.50;;
49217;SDS011;35045;51.194;7.268;2022-09-30T02:04:17;9.82;;;7.43;;
49217;SDS011;35045;51.194;7.268;2022-09-30T02:06:52;9.60;;;6.93;;
49217;SDS011;35045;51.194;7.268;2022-09-30T02:09:42;10.05;;;7.50;;
49217;SDS011;35045;51.194;7.268;2022-09-30T02:12:16;10.00;;;7.50;;
49217;SDS011;35045;51.194;7.268;2022-09-30T02:15:20;9.80;;;6.82;;
49217;SDS011;35045;51.194;7.268;2022-09-30T02:17:41;9.18;;;7.13;;
49217;SDS011;35045;51.194;7.268;2022-09-30T02:25:32;12.40;;;7.25;;
49217;SDS011;35045;51.194;7.268;2022-09-30T02:28:05;10.32;;;7.93;;
49217;SDS011;35045;51.194;7.268;2022-09-30T02:30:36;10.88;;;7.68;;
49217;SDS011;35045;51.194;7.268;2022-09-30T02:33:08;10.52;;;7.85;;
49217;SDS011;35045;51.194;7.268;2022-09-30T02:35:40;9.52;;;7.47;;
49217;SDS011;35045;51.194;7.268;2022-09-30T02:38:15;10.13;;;7.68;;
49217;SDS011;35045;51.194;7.268;2022-09-30T02:40:45;10.05;;;7.50;;
49217;SDS011;35045;51.194;7.268;2022-09-30T02:43:35;10.88;;;7.47;;
49217;SDS011;35045;51.194;7.268;2022-09-30T02:46:15;10.82;;;7.63;;
49217;SDS011;35045;51.194;7.268;2022-09-30T02:48:58;11.65;;;7.85;;
49217;SDS011;35045;51.194;7.268;2022-09-30T02:54:24;11.18;;;8.10;;
49217;SDS011;35045;51.194;7.268;2022-09-30T02:59:45;10.93;;;7.50;;
49217;SDS011;35045;51.194;7.268;2022-09-30T03:02:13;11.63;;;7.63;;
49217;SDS011;35045;51.194;7.268;2022-09-30T03:04:39;10.50;;;8.50;;
49217;SDS011;35045;51.194;7.268;2022-09-30T03:07:08;12.35;;;7.22;;
49217;SDS011;35045;51.194;7.268;2022-09-30T03:09:34;11.40;;;7.60;;
49217;SDS011;35045;51.194;7.268;2022-09-30T03:12:12;10.13;;;7.25;;
49217;SDS011;35045;51.194;7.268;2022-09-30T03:23:19;11.32;;;8.20;;
49217;SDS011;35045;51.194;7.268;2022-09-30T03:28:32;12.23;;;7.18;;
49217;SDS011;35045;51.194;7.268;2022-09-30T03:36:49;11.25;;;8.52;;
49217;SDS011;35045;51.194;7.268;2022-09-30T03:39:50;10.25;;;7.22;;
49217;SDS011;35045;51.194;7.268;2022-09-30T03:42:21;9.82;;;7.28;;
49217;SDS011;35045;51.194;7.268;2022-09-30T03:45:16;9.02;;;7.07;;
49217;SDS011;35045;51.194;7.268;2022-09-30T03:47:48;10.15;;;7.13;;
49217;SDS011;35045;51.194;7.268;2022-09-30T03:50:19;11.43;;;7.75;;
49217;SDS011;35045;51.194;7.268;2022-09-30T03:52:47;11.55;;;7.35;;
49217;SDS011;35045;51.194;7.268;2022-09-30T03:55:15;10.05;;;7.90;;
49217;SDS011;35045;51.194;7.268;2022-09-30T03:57:41;10.80;;;7.95;;
49217;SDS011;35045;51.194;7.268;2022-09-30T04:00:09;9.90;;;7.72;;
49217;SDS011;35045;51.194;7.268;2022-09-30T04:02:36;11.02;;;7.07;;
49217;SDS011;35045;51.194;7.268;2022-09-30T04:05:03;10.82;;;7.57;;
49217;SDS011;35045;51.194;7.268;2022-09-30T04:07:30;8.80;;;6.90;;
49217;SDS011;35045;51.194;7.268;2022-09-30T04:09:57;11.02;;;7.57;;
49217;SDS011;35045;51.194;7.268;2022-09-30T04:12:23;10.32;;;7.00;;
49217;SDS011;35045;51.194;7.268;2022-09-30T04:14:50;9.80;;;7.38;;
49217;SDS011;35045;51.194;7.268;2022-09-30T04:17:16;11.07;;;7.60;;
49217;SDS011;35045;51.194;7.268;2022-09-30T04:19:43;12.27;;;8.10;;
49217;SDS011;35045;51.194;7.268;2022-09-30T04:22:09;10.90;;;7.32;;
49217;SDS011;35045;51.194;7.268;2022-09-30T04:24:35;9.30;;;6.75;;
49217;SDS011;35045;51.194;7.268;2022-09-30T04:27:01;11.88;;;7.93;;
49217;SDS011;35045;51.194;7.268;2022-09-30T04:29:28;10.32;;;7.57;;
49217;SDS011;35045;51.194;7.268;2022-09-30T04:31:54;9.88;;;7.20;;
49217;SDS011;35045;51.194;7.268;2022-09-30T04:34:21;11.82;;;8.25;;
49217;SDS011;35045;51.194;7.268;2022-09-30T04:36:47;9.95;;;7.30;;
49217;SDS011;35045;51.194;7.268;2022-09-30T04:39:13;10.43;;;7.47;;
49217;SDS011;35045;51.194;7.268;2022-09-30T04:41:39;9.98;;;7.43;;
49217;SDS011;35045;51.194;7.268;2022-09-30T04:44:05;9.70;;;7.35;;
49217;SDS011;35045;51.194;7.268;2022-09-30T04:46:33;9.90;;;7.45;;
49217;SDS011;35045;51.194;7.268;2022-09-30T04:49:04;10.93;;;7.28;;
49217;SDS011;35045;51.194;7.268;2022-09-30T04:51:33;10.93;;;7.22;;
49217;SDS011;35045;51.194;7.268;2022-09-30T04:54:00;11.73;;;6.82;;
49217;SDS011;35045;51.194;7.268;2022-09-30T04:56:27;9.20;;;7.32;;
49217;SDS011;35045;51.194;7.268;2022-09-30T04:58:53;11.15;;;7.30;;
49217;SDS011;35045;51.194;7.268;2022-09-30T05:01:19;10.13;;;7.10;;
49217;SDS011;35045;51.194;7.268;2022-09-30T05:03:46;10.63;;;7.07;;
49217;SDS011;35045;51.194;7.268;2022-09-30T05:06:13;9.52;;;7.10;;
49217;SDS011;35045;51.194;7.268;2022-09-30T05:08:39;9.75;;;7.40;;
49217;SDS011;35045;51.194;7.268;2022-09-30T05:11:09;10.68;;;7.95;;
49217;SDS011;35045;51.194;7.268;2022-09-30T05:13:39;10.80;;;7.15;;
49217;SDS011;35045;51.194;7.268;2022-09-30T05:16:06;9.85;;;6.82;;
49217;SDS011;35045;51.194;7.268;2022-09-30T05:18:33;9.85;;;7.10;;
49217;SDS011;35045;51.194;7.268;2022-09-30T05:21:00;11.25;;;7.35;;
49217;SDS011;35045;51.194;7.268;2022-09-30T05:23:27;10.27;;;7.32;;
49217;SDS011;35045;51.194;7.268;2022-09-30T05:25:54;11.10;;;7.35;;
49217;SDS011;35045;51.194;7.268;2022-09-30T05:28:21;11.20;;;7.93;;
49217;SDS011;35045;51.194;7.268;2022-09-30T05:30:47;11.27;;;8.75;;
49217;SDS011;35045;51.194;7.268;2022-09-30T05:33:18;10.70;;;7.85;;
49217;SDS011;35045;51.194;7.268;2022-09-30T05:35:44;11.15;;;8.40;;
49217;SDS011;35045;51.194;7.268;2022-09-30T05:38:12;11.25;;;8.55;;
49217;SDS011;35045;51.194;7.268;2022-09-30T05:40:38;11.27;;;8.57;;
49217;SDS011;35045;51.194;7.268;2022-09-30T05:43:05;10.65;;;8.20;;
49217;SDS011;35045;51.194;7.268;2022-09-30T05:45:32;11.30;;;7.68;;
49217;SDS011;35045;51.194;7.268;2022-09-30T05:47:58;12.20;;;8.75;;
49217;SDS011;35045;51.194;7.268;2022-09-30T05:50:25;10.98;;;8.35;;
49217;SDS011;35045;51.194;7.268;2022-09-30T05:52:51;11.18;;;8.30;;
49217;SDS011;35045;51.194;7.268;2022-09-30T05:55:18;11.38;;;9.48;;
49217;SDS011;35045;51.194;7.268;2022-09-30T05:57:48;12.48;;;9.30;;
49217;SDS011;35045;51.194;7.268;2022-09-30T06:00:15;11.20;;;8.10;;
49217;SDS011;35045;51.194;7.268;2022-09-30T06:02:43;11.82;;;8.40;;
49217;SDS011;35045;51.194;7.268;2022-09-30T06:05:09;10.52;;;7.65;;
49217;SDS011;35045;51.194;7.268;2022-09-30T06:07:36;11.15;;;8.13;;
49217;SDS011;35045;51.194;7.268;2022-09-30T06:10:04;10.88;;;8.10;;
49217;SDS011;35045;51.194;7.268;2022-09-30T06:12:35;10.68;;;7.78;;
49217;SDS011;35045;51.194;7.268;2022-09-30T06:15:03;10.85;;;8.30;;
49217;SDS011;35045;51.194;7.268;2022-09-30T06:17:29;11.75;;;8.50;;
49217;SDS011;35045;51.194;7.268;2022-09-30T06:19:56;11.70;;;8.70;;
49217;SDS011;35045;51.194;7.268;2022-09-30T06:22:22;10.90;;;8.00;;
49217;SDS011;35045;51.194;7.268;2022-09-30T06:24:48;10.25;;;7.65;;
49217;SDS011;35045;51.194;7.268;2022-09-30T06:27:17;11.43;;;7.50;;
49217;SDS011;35045;51.194;7.268;2022-09-30T06:29:43;11.85;;;8.48;;
49217;SDS011;35045;51.194;7.268;2022-09-30T06:32:09;11.43;;;9.00;;
49217;SDS011;35045;51.194;7.268;2022-09-30T06:34:36;10.55;;;7.90;;
49217;SDS011;35045;51.194;7.268;2022-09-30T06:37:02;10.43;;;8.25;;
49217;SDS011;35045;51.194;7.268;2022-09-30T06:39:28;11.23;;;8.65;;
49217;SDS011;35045;51.194;7.268;2022-09-30T06:41:54;11.45;;;8.30;;
49217;SDS011;35045;51.194;7.268;2022-09-30T06:44:20;12.30;;;9.05;;
49217;SDS011;35045;51.194;7.268;2022-09-30T06:46:46;11.40;;;8.07;;
49217;SDS011;35045;51.194;7.268;2022-09-30T06:49:18;11.80;;;8.35;;
49217;SDS011;35045;51.194;7.268;2022-09-30T06:51:44;12.45;;;8.80;;
49217;SDS011;35045;51.194;7.268;2022-09-30T06:54:10;13.35;;;8.85;;
49217;SDS011;35045;51.194;7.268;2022-09-30T06:56:36;10.65;;;7.72;;
49217;SDS011;35045;51.194;7.268;2022-09-30T06:59:03;10.40;;;8.50;;
49217;SDS011;35045;51.194;7.268;2022-09-30T07:01:29;11.05;;;7.72;;
49217;SDS011;35045;51.194;7.268;2022-09-30T07:03:55;12.85;;;8.38;;
49217;SDS011;35045;51.194;7.268;2022-09-30T07:06:23;12.38;;;7.93;;
49217;SDS011;35045;51.194;7.268;2022-09-30T07:08:52;10.43;;;7.63;;
49217;SDS011;35045;51.194;7.268;2022-09-30T07:11:19;11.65;;;8.10;;
49217;SDS011;35045;51.194;7.268;2022-09-30T07:13:45;11.52;;;8.25;;
49217;SDS011;35045;51.194;7.268;2022-09-30T07:16:14;10.38;;;7.85;;
49217;SDS011;35045;51.194;7.268;2022-09-30T07:18:41;11.48;;;7.82;;
49217;SDS011;35045;51.194;7.268;2022-09-30T07:21:08;10.45;;;7.68;;
49217;SDS011;35045;51.194;7.268;2022-09-30T07:23:37;11.43;;;8.02;;
49217;SDS011;35045;51.194;7.268;2022-09-30T07:26:03;10.77;;;7.82;;
49217;SDS011;35045;51.194;7.268;2022-09-30T07:28:31;11.60;;;8.10;;
49217;SDS011;35045;51.194;7.268;2022-09-30T07:31:00;12.25;;;7.43;;
49217;SDS011;35045;51.194;7.268;2022-09-30T07:33:51;12.88;;;7.65;;
49217;SDS011;35045;51.194;7.268;2022-09-30T07:36:21;14.35;;;8.02;;
49217;SDS011;35045;51.194;7.268;2022-09-30T07:38:56;13.77;;;7.30;;
49217;SDS011;35045;51.194;7.268;2022-09-30T07:41:24;11.40;;;6.95;;
49217;SDS011;35045;51.194;7.268;2022-09-30T07:43:55;10.05;;;6.85;;
49217;SDS011;35045;51.194;7.268;2022-09-30T07:46:30;13.90;;;7.63;;
49217;SDS011;35045;51.194;7.268;2022-09-30T07:48:57;11.73;;;7.10;;
49217;SDS011;35045;51.194;7.268;2022-09-30T07:51:31;11.00;;;8.02;;
49217;SDS011;35045;51.194;7.268;2022-09-30T07:54:04;11.45;;;7.10;;
49217;SDS011;35045;51.194;7.268;2022-09-30T07:56:32;14.30;;;7.90;;
49217;SDS011;35045;51.194;7.268;2022-09-30T07:59:16;10.48;;;6.78;;
49217;SDS011;35045;51.194;7.268;2022-09-30T08:01:44;10.63;;;6.40;;
49217;SDS011;35045;51.194;7.268;2022-09-30T08:04:10;9.90;;;6.45;;
49217;SDS011;35045;51.194;7.268;2022-09-30T08:06:39;9.85;;;7.13;;
49217;SDS011;35045;51.194;7.268;2022-09-30T08:09:07;12.52;;;6.53;;
49217;SDS011;35045;51.194;7.268;2022-09-30T08:11:34;10.27;;;6.47;;
49217;SDS011;35045;51.194;7.268;2022-09-30T08:14:02;12.88;;;6.15;;
49217;SDS011;35045;51.194;7.268;2022-09-30T08:16:29;9.55;;;5.85;;
49217;SDS011;35045;51.194;7.268;2022-09-30T08:18:57;8.38;;;5.75;;
49217;SDS011;35045;51.194;7.268;2022-09-30T08:21:26;11.70;;;6.72;;
49217;SDS011;35045;51.194;7.268;2022-09-30T08:23:52;11.32;;;6.03;;
49217;SDS011;35045;51.194;7.268;2022-09-30T08:26:19;9.25;;;5.65;;
49217;SDS011;35045;51.194;7.268;2022-09-30T08:28:45;9.63;;;5.85;;
49217;SDS011;35045;51.194;7.268;2022-09-30T08:31:13;10.40;;;5.78;;
49217;SDS011;35045;51.194;7.268;2022-09-30T08:33:44;11.05;;;6.13;;
49217;SDS011;35045;51.194;7.268;2022-09-30T08:36:12;12.77;;;5.97;;
49217;SDS011;35045;51.194;7.268;2022-09-30T08:38:40;8.10;;;5.80;;
49217;SDS011;35045;51.194;7.268;2022-09-30T08:41:19;9.52;;;6.22;;
49217;SDS011;35045;51.194;7.268;2022-09-30T08:49:27;10.82;;;5.88;;
49217;SDS011;35045;51.194;7.268;2022-09-30T08:52:00;11.13;;;6.07;;
49217;SDS011;35045;51.194;7.268;2022-09-30T08:54:31;10.18;;;5.75;;
49217;SDS011;35045;51.194;7.268;2022-09-30T08:57:02;9.90;;;5.78;;
49217;SDS011;35045;51.194;7.268;2022-09-30T08:59:31;10.00;;;5.65;;
49217;SDS011;35045;51.194;7.268;2022-09-30T09:04:57;9.32;;;5.60;;
49217;SDS011;35045;51.194;7.268;2022-09-30T09:10:31;9.85;;;5.53;;
49217;SDS011;35045;51.194;7.268;2022-09-30T09:13:08;10.00;;;5.68;;
49217;SDS011;35045;51.194;7.268;2022-09-30T09:18:35;9.27;;;5.65;;
49217;SDS011;35045;51.194;7.268;2022-09-30T09:21:12;10.85;;;6.15;;
49217;SDS011;35045;51.194;7.268;2022-09-30T09:23:47;9.07;;;5.63;;
49217;SDS011;35045;51.194;7.268;2022-09-30T09:26:14;8.65;;;5.60;;
49217;SDS011;35045;51.194;7.268;2022-09-30T09:28:47;11.48;;;6.40;;
49217;SDS011;35045;51.194;7.268;2022-09-30T09:31:29;10.43;;;5.95;;
49217;SDS011;35045;51.194;7.268;2022-09-30T09:33:55;9.07;;;6.22;;
49217;SDS011;35045;51.194;7.268;2022-09-30T09:36:37;13.30;;;6.30;;
49217;SDS011;35045;51.194;7.268;2022-09-30T09:41:59;8.40;;;5.40;;
49217;SDS011;35045;51.194;7.268;2022-09-30T09:44:47;9.40;;;5.60;;
49217;SDS011;35045;51.194;7.268;2022-09-30T09:47:39;8.70;;;5.43;;
49217;SDS011;35045;51.194;7.268;2022-09-30T09:50:15;11.20;;;5.32;;
49217;SDS011;35045;51.194;7.268;2022-09-30T09:52:49;9.82;;;5.80;;
49217;SDS011;35045;51.194;7.268;2022-09-30T09:55:37;10.50;;;5.15;;
49217;SDS011;35045;51.194;7.268;2022-09-30T09:58:09;10.10;;;5.47;;
49217;SDS011;35045;51.194;7.268;2022-09-30T10:00:38;9.32;;;5.40;;
49217;SDS011;35045;51.194;7.268;2022-09-30T10:03:12;11.73;;;5.07;;
49217;SDS011;35045;51.194;7.268;2022-09-30T10:05:44;11.02;;;5.38;;
49217;SDS011;35045;51.194;7.268;2022-09-30T10:08:24;9.95;;;5.20;;
49217;SDS011;35045;51.194;7.268;2022-09-30T10:10:51;9.65;;;4.88;;
49217;SDS011;35045;51.194;7.268;2022-09-30T10:13:30;8.65;;;5.40;;
49217;SDS011;35045;51.194;7.268;2022-09-30T10:16:05;8.27;;;5.18;;
49217;SDS011;35045;51.194;7.268;2022-09-30T10:18:47;8.23;;;5.07;;
49217;SDS011;35045;51.194;7.268;2022-09-30T10:21:18;10.48;;;5.13;;
49217;SDS011;35045;51.194;7.268;2022-09-30T10:23:47;8.57;;;5.18;;
49217;SDS011;35045;51.194;7.268;2022-09-30T10:28:52;9.07;;;4.63;;
49217;SDS011;35045;51.194;7.268;2022-09-30T10:31:27;8.80;;;4.95;;
49217;SDS011;35045;51.194;7.268;2022-09-30T10:36:35;9.23;;;5.05;;
49217;SDS011;35045;51.194;7.268;2022-09-30T10:39:06;10.05;;;5.57;;
49217;SDS011;35045;51.194;7.268;2022-09-30T10:41:34;8.98;;;4.82;;
49217;SDS011;35045;51.194;7.268;2022-09-30T10:44:04;8.13;;;4.78;;
49217;SDS011;35045;51.194;7.268;2022-09-30T10:51:56;8.40;;;4.80;;
49217;SDS011;35045;51.194;7.268;2022-09-30T10:54:45;7.72;;;4.53;;
49217;SDS011;35045;51.194;7.268;2022-09-30T10:57:24;7.85;;;4.28;;
49217;SDS011;35045;51.194;7.268;2022-09-30T10:59:54;7.82;;;4.57;;
49217;SDS011;35045;51.194;7.268;2022-09-30T11:02:33;7.57;;;4.18;;
49217;SDS011;35045;51.194;7.268;2022-09-30T11:05:34;11.20;;;5.03;;
49217;SDS011;35045;51.194;7.268;2022-09-30T11:10:52;7.65;;;4.57;;
49217;SDS011;35045;51.194;7.268;2022-09-30T11:13:33;9.73;;;4.60;;
49217;SDS011;35045;51.194;7.268;2022-09-30T11:19:16;9.93;;;4.45;;
49217;SDS011;35045;51.194;7.268;2022-09-30T11:21:55;7.40;;;3.63;;
49217;SDS011;35045;51.194;7.268;2022-09-30T11:24:42;7.70;;;4.57;;
49217;SDS011;35045;51.194;7.268;2022-09-30T11:27:31;7.43;;;3.95;;
49217;SDS011;35045;51.194;7.268;2022-09-30T11:30:29;8.57;;;4.15;;
49217;SDS011;35045;51.194;7.268;2022-09-30T11:39:16;9.50;;;4.68;;
49217;SDS011;35045;51.194;7.268;2022-09-30T11:41:45;7.07;;;4.32;;
49217;SDS011;35045;51.194;7.268;2022-09-30T11:44:28;8.77;;;4.30;;
49217;SDS011;35045;51.194;7.268;2022-09-30T11:52:23;7.60;;;4.10;;
49217;SDS011;35045;51.194;7.268;2022-09-30T11:58:03;8.15;;;4.20;;
49217;SDS011;35045;51.194;7.268;2022-09-30T12:00:43;7.45;;;3.70;;
49217;SDS011;35045;51.194;7.268;2022-09-30T12:03:27;7.85;;;4.18;;
49217;SDS011;35045;51.194;7.268;2022-09-30T12:06:04;7.30;;;4.07;;
49217;SDS011;35045;51.194;7.268;2022-09-30T12:08:45;6.60;;;2.60;;
49217;SDS011;35045;51.194;7.268;2022-09-30T12:11:21;7.32;;;3.20;;
49217;SDS011;35045;51.194;7.268;2022-09-30T12:13:56;5.35;;;2.40;;
49217;SDS011;35045;51.194;7.268;2022-09-30T12:16:28;7.47;;;2.90;;
49217;SDS011;35045;51.194;7.268;2022-09-30T12:24:38;7.53;;;3.05;;
49217;SDS011;35045;51.194;7.268;2022-09-30T12:30:11;4.68;;;2.03;;
49217;SDS011;35045;51.194;7.268;2022-09-30T12:33:04;5.15;;;2.05;;
49217;SDS011;35045;51.194;7.268;2022-09-30T12:41:31;6.53;;;2.03;;
49217;SDS011;35045;51.194;7.268;2022-09-30T12:46:44;5.88;;;1.98;;
49217;SDS011;35045;51.194;7.268;2022-09-30T12:49:18;6.07;;;2.50;;
49217;SDS011;35045;51.194;7.268;2022-09-30T12:51:51;6.35;;;2.38;;
49217;SDS011;35045;51.194;7.268;2022-09-30T12:54:22;6.15;;;2.20;;
49217;SDS011;35045;51.194;7.268;2022-09-30T12:56:57;5.45;;;2.47;;
49217;SDS011;35045;51.194;7.268;2022-09-30T12:59:31;8.32;;;2.50;;
49217;SDS011;35045;51.194;7.268;2022-09-30T13:02:03;5.47;;;2.38;;
49217;SDS011;35045;51.194;7.268;2022-09-30T13:12:15;6.80;;;2.75;;
49217;SDS011;35045;51.194;7.268;2022-09-30T13:14:48;6.32;;;2.85;;
49217;SDS011;35045;51.194;7.268;2022-09-30T13:17:52;5.80;;;2.40;;
49217;SDS011;35045;51.194;7.268;2022-09-30T13:20:48;6.30;;;2.33;;
49217;SDS011;35045;51.194;7.268;2022-09-30T13:26:34;5.55;;;2.25;;
49217;SDS011;35045;51.194;7.268;2022-09-30T13:31:31;6.10;;;2.60;;
49217;SDS011;35045;51.194;7.268;2022-09-30T13:34:26;6.07;;;2.58;;
49217;SDS011;35045;51.194;7.268;2022-09-30T13:36:56;7.32;;;2.70;;
49217;SDS011;35045;51.194;7.268;2022-09-30T13:39:27;7.55;;;2.97;;
49217;SDS011;35045;51.194;7.268;2022-09-30T13:44:30;6.40;;;2.63;;
49217;SDS011;35045;51.194;7.268;2022-09-30T13:53:21;5.68;;;2.45;;
49217;SDS011;35045;51.194;7.268;2022-09-30T13:56:03;6.88;;;2.50;;
49217;SDS011;35045;51.194;7.268;2022-09-30T13:58:51;6.60;;;2.60;;
49217;SDS011;35045;51.194;7.268;2022-09-30T14:07:15;6.28;;;2.63;;
49217;SDS011;35045;51.194;7.268;2022-09-30T14:13:04;8.48;;;3.05;;
49217;SDS011;35045;51.194;7.268;2022-09-30T14:21:22;7.93;;;2.83;;
49217;SDS011;35045;51.194;7.268;2022-09-30T14:24:01;5.18;;;2.53;;
49217;SDS011;35045;51.194;7.268;2022-09-30T14:26:46;6.70;;;2.30;;
49217;SDS011;35045;51.194;7.268;2022-09-30T14:32:36;4.28;;;1.92;;
49217;SDS011;35045;51.194;7.268;2022-09-30T14:35:04;6.35;;;2.22;;
49217;SDS011;35045;51.194;7.268;2022-09-30T14:37:36;5.45;;;2.30;;
49217;SDS011;35045;51.194;7.268;2022-09-30T14:40:09;5.07;;;2.00;;
49217;SDS011;35045;51.194;7.268;2022-09-30T14:42:40;6.32;;;2.30;;
49217;SDS011;35045;51.194;7.268;2022-09-30T14:45:23;5.70;;;2.20;;
49217;SDS011;35045;51.194;7.268;2022-09-30T14:47:52;5.50;;;1.90;;
49217;SDS011;35045;51.194;7.268;2022-09-30T14:50:26;5.82;;;2.17;;
49217;SDS011;35045;51.194;7.268;2022-09-30T14:52:57;4.40;;;1.80;;
49217;SDS011;35045;51.194;7.268;2022-09-30T14:55:29;4.65;;;1.58;;
49217;SDS011;35045;51.194;7.268;2022-09-30T15:00:47;6.15;;;2.33;;
49217;SDS011;35045;51.194;7.268;2022-09-30T15:03:21;5.85;;;1.80;;
49217;SDS011;35045;51.194;7.268;2022-09-30T15:05:47;5.10;;;1.95;;
49217;SDS011;35045;51.194;7.268;2022-09-30T15:08:16;6.80;;;1.52;;
49217;SDS011;35045;51.194;7.268;2022-09-30T15:10:45;6.22;;;2.30;;
49217;SDS011;35045;51.194;7.268;2022-09-30T15:13:13;4.28;;;1.67;;
49217;SDS011;35045;51.194;7.268;2022-09-30T15:15:41;5.03;;;1.63;;
49217;SDS011;35045;51.194;7.268;2022-09-30T15:20:56;6.13;;;1.80;;
49217;SDS011;35045;51.194;7.268;2022-09-30T15:23:33;5.00;;;1.67;;
49217;SDS011;35045;51.194;7.268;2022-09-30T15:26:02;3.72;;;1.60;;
49217;SDS011;35045;51.194;7.268;2022-09-30T15:28:28;5.60;;;1.50;;
49217;SDS011;35045;51.194;7.268;2022-09-30T15:30:56;4.60;;;1.63;;
49217;SDS011;35045;51.194;7.268;2022-09-30T15:33:24;3.53;;;1.50;;
49217;SDS011;35045;51.194;7.268;2022-09-30T15:36:15;3.00;;;1.20;;
49217;SDS011;35045;51.194;7.268;2022-09-30T15:38:46;3.55;;;1.15;;
49217;SDS011;35045;51.194;7.268;2022-09-30T15:41:14;4.85;;;1.40;;
49217;SDS011;35045;51.194;7.268;2022-09-30T15:43:42;3.83;;;1.40;;
49217;SDS011;35045;51.194;7.268;2022-09-30T15:46:21;6.63;;;1.73;;
49217;SDS011;35045;51.194;7.268;2022-09-30T15:49:03;4.57;;;1.17;;
49217;SDS011;35045;51.194;7.268;2022-09-30T15:51:53;4.38;;;1.40;;
49217;SDS011;35045;51.194;7.268;2022-09-30T15:56:59;3.92;;;1.25;;
49217;SDS011;35045;51.194;7.268;2022-09-30T15:59:55;6.05;;;1.23;;
49217;SDS011;35045;51.194;7.268;2022-09-30T16:02:24;2.63;;;1.00;;
49217;SDS011;35045;51.194;7.268;2022-09-30T16:04:51;4.13;;;1.10;;
49217;SDS011;35045;51.194;7.268;2022-09-30T16:07:18;3.53;;;1.20;;
49217;SDS011;35045;51.194;7.268;2022-09-30T16:09:50;4.05;;;1.17;;
49217;SDS011;35045;51.194;7.268;2022-09-30T16:12:18;2.90;;;1.27;;
49217;SDS011;35045;51.194;7.268;2022-09-30T16:14:49;3.97;;;1.27;;
49217;SDS011;35045;51.194;7.268;2022-09-30T16:20:19;5.15;;;1.00;;
49217;SDS011;35045;51.194;7.268;2022-09-30T16:27:54;3.90;;;1.23;;
49217;SDS011;35045;51.194;7.268;2022-09-30T16:30:24;4.18;;;1.60;;
49217;SDS011;35045;51.194;7.268;2022-09-30T16:32:51;5.35;;;1.25;;
49217;SDS011;35045;51.194;7.268;2022-09-30T16:35:21;4.22;;;1.50;;
49217;SDS011;35045;51.194;7.268;2022-09-30T16:37:49;4.45;;;1.52;;
49217;SDS011;35045;51.194;7.268;2022-09-30T16:40:22;5.38;;;1.40;;
49217;SDS011;35045;51.194;7.268;2022-09-30T16:42:50;3.40;;;1.30;;
49217;SDS011;35045;51.194;7.268;2022-09-30T16:45:19;8.90;;;1.50;;
49217;SDS011;35045;51.194;7.268;2022-09-30T16:47:47;3.47;;;1.30;;
49217;SDS011;35045;51.194;7.268;2022-09-30T16:50:15;3.28;;;1.20;;
49217;SDS011;35045;51.194;7.268;2022-09-30T16:52:45;4.65;;;1.30;;
49217;SDS011;35045;51.194;7.268;2022-09-30T16:55:11;4.20;;;1.40;;
49217;SDS011;35045;51.194;7.268;2022-09-30T16:57:38;3.22;;;1.13;;
49217;SDS011;35045;51.194;7.268;2022-09-30T17:00:05;3.42;;;1.13;;
49217;SDS011;35045;51.194;7.268;2022-09-30T17:02:31;6.55;;;1.70;;
49217;SDS011;35045;51.194;7.268;2022-09-30T17:04:58;5.97;;;1.58;;
49217;SDS011;35045;51.194;7.268;2022-09-30T17:07:24;5.95;;;2.50;;
49217;SDS011;35045;51.194;7.268;2022-09-30T17:09:50;4.78;;;2.00;;
49217;SDS011;35045;51.194;7.268;2022-09-30T17:12:16;6.05;;;2.22;;
49217;SDS011;35045;51.194;7.268;2022-09-30T17:14:43;5.97;;;2.55;;
49217;SDS011;35045;51.194;7.268;2022-09-30T17:17:09;7.57;;;2.90;;
49217;SDS011;35045;51.194;7.268;2022-09-30T17:19:37;4.88;;;1.98;;
49217;SDS011;35045;51.194;7.268;2022-09-30T17:22:04;4.47;;;1.77;;
49217;SDS011;35045;51.194;7.268;2022-09-30T17:24:30;4.22;;;1.70;;
49217;SDS011;35045;51.194;7.268;2022-09-30T17:26:57;4.28;;;1.70;;
49217;SDS011;35045;51.194;7.268;2022-09-30T17:29:23;4.97;;;1.63;;
49217;SDS011;35045;51.194;7.268;2022-09-30T17:31:56;4.25;;;1.52;;
49217;SDS011;35045;51.194;7.268;2022-09-30T17:34:22;4.22;;;1.60;;
49217;SDS011;35045;51.194;7.268;2022-09-30T17:36:49;5.55;;;1.50;;
49217;SDS011;35045;51.194;7.268;2022-09-30T17:39:15;4.80;;;1.67;;
49217;SDS011;35045;51.194;7.268;2022-09-30T17:41:41;4.90;;;1.88;;
49217;SDS011;35045;51.194;7.268;2022-09-30T17:44:26;4.55;;;1.70;;
49217;SDS011;35045;51.194;7.268;2022-09-30T17:46:52;6.13;;;1.80;;
49217;SDS011;35045;51.194;7.268;2022-09-30T17:49:29;5.93;;;2.10;;
49217;SDS011;35045;51.194;7.268;2022-09-30T17:52:00;6.88;;;1.85;;
49217;SDS011;35045;51.194;7.268;2022-09-30T17:54:27;5.00;;;2.10;;
49217;SDS011;35045;51.194;7.268;2022-09-30T17:56:54;7.95;;;1.98;;
49217;SDS011;35045;51.194;7.268;2022-09-30T17:59:20;3.88;;;1.80;;